Time;durP1;ratioP1;P1;durP2;ratioP2;P2;SDS_P1;SDS_P2;PMS_P1;PMS_P2;Temp;Humidity;BMP_temperature;BMP_pressure;BME280_temperature;BME280_humidity;BME280_pressure;Samples;Min_cycle;Max_cycle;Signal;HPM_P1;HPM_P2
2021/06/10 00:01:23;;;;;;;0.65;0.22;;;;;;;;;;5005723;28;20046;-68
2021/06/10 00:03:50;;;;;;;0.52;0.30;;;;;;;;;;5013140;28;20506;-68
2021/06/10 00:06:18;;;;;;;2.85;0.20;;;;;;;;;;5012572;28;20022;-68
2021/06/10 00:08:45;;;;;;;2.58;0.30;;;;;;;;;;5013297;28;20022;-68
2021/06/10 00:11:12;;;;;;;1.40;0.55;;;;;;;;;;5011226;28;20018;-68
2021/06/10 00:13:39;;;;;;;0.70;0.20;;;;;;;;;;5010998;28;20049;-68
2021/06/10 00:16:06;;;;;;;0.17;0.10;;;;;;;;;;5004925;28;20032;-69
2021/06/10 00:18:33;;;;;;;0.70;0.25;;;;;;;;;;5009216;28;20421;-69
2021/06/10 00:21:00;;;;;;;0.75;0.10;;;;;;;;;;5009989;28;20029;-69
2021/06/10 00:23:27;;;;;;;0.70;0.40;;;;;;;;;;5008005;28;20041;-68
2021/06/10 00:25:54;;;;;;;0.63;0.20;;;;;;;;;;5006148;28;20056;-69
2021/06/10 00:28:21;;;;;;;0.50;0.10;;;;;;;;;;5008432;28;20026;-69
2021/06/10 00:30:49;;;;;;;0.20;0.10;;;;;;;;;;5010389;28;20018;-69
2021/06/10 00:33:16;;;;;;;1.67;0.22;;;;;;;;;;5010728;28;20025;-69
2021/06/10 00:35:43;;;;;;;1.60;0.20;;;;;;;;;;5007217;28;20101;-68
2021/06/10 00:38:10;;;;;;;0.52;0.35;;;;;;;;;;5007130;28;20022;-68
2021/06/10 00:40:37;;;;;;;0.10;0.10;;;;;;;;;;5008055;28;20030;-68
2021/06/10 00:43:04;;;;;;;0.82;0.20;;;;;;;;;;5007512;28;20041;-68
2021/06/10 00:45:32;;;;;;;2.20;0.30;;;;;;;;;;5010657;28;20099;-68
2021/06/10 00:47:59;;;;;;;0.10;0.10;;;;;;;;;;5007473;28;20403;-68
2021/06/10 00:50:32;;;;;;;0.45;0.20;;;;;;;;;;4993982;28;20088;-68
2021/06/10 00:52:59;;;;;;;0.52;0.15;;;;;;;;;;5011466;28;20052;-68
2021/06/10 00:55:26;;;;;;;1.65;0.10;;;;;;;;;;5011108;28;20490;-69
2021/06/10 00:57:54;;;;;;;0.52;0.15;;;;;;;;;;5012926;28;20426;-68
2021/06/10 01:00:21;;;;;;;0.75;0.10;;;;;;;;;;5011487;28;20021;-68
2021/06/10 01:02:48;;;;;;;0.20;0.10;;;;;;;;;;5011329;28;20498;-68
2021/06/10 01:05:15;;;;;;;1.60;0.10;;;;;;;;;;5010749;28;20068;-68
2021/06/10 01:07:50;;;;;;;1.98;0.40;;;;;;;;;;5012265;28;20105;-68
2021/06/10 01:10:26;;;;;;;0.73;0.10;;;;;;;;;;5003324;28;20368;-69
2021/06/10 01:13:11;;;;;;;1.05;0.20;;;;;;;;;;5002091;28;20030;-68
2021/06/10 01:15:41;;;;;;;1.48;0.50;;;;;;;;;;5010326;28;20030;-68
2021/06/10 01:18:09;;;;;;;0.20;0.10;;;;;;;;;;5012930;28;20375;-68
2021/06/10 01:20:36;;;;;;;0.63;0.20;;;;;;;;;;5009422;28;20041;-69
2021/06/10 01:23:10;;;;;;;0.10;0.05;;;;;;;;;;5003932;28;20760;-67
2021/06/10 01:25:45;;;;;;;0.20;0.10;;;;;;;;;;4994151;28;20463;-69
2021/06/10 01:28:14;;;;;;;1.02;0.20;;;;;;;;;;5008054;28;20022;-69
2021/06/10 01:30:44;;;;;;;0.52;0.15;;;;;;;;;;5010777;28;20581;-68
2021/06/10 01:33:17;;;;;;;0.20;0.10;;;;;;;;;;5011254;28;20034;-69
2021/06/10 01:35:48;;;;;;;0.30;0.10;;;;;;;;;;5009131;28;20106;-68
2021/06/10 01:38:16;;;;;;;0.20;0.10;;;;;;;;;;5012180;28;20544;-69
2021/06/10 01:40:44;;;;;;;1.35;0.20;;;;;;;;;;5009931;28;20463;-68
2021/06/10 01:43:14;;;;;;;1.00;0.30;;;;;;;;;;5012363;28;20086;-69
2021/06/10 01:45:41;;;;;;;1.08;0.30;;;;;;;;;;5009438;28;20483;-67
2021/06/10 01:48:09;;;;;;;1.40;0.20;;;;;;;;;;5012312;28;20109;-68
2021/06/10 01:50:36;;;;;;;1.25;0.30;;;;;;;;;;5006262;28;20402;-68
2021/06/10 01:53:05;;;;;;;1.08;0.20;;;;;;;;;;5010638;28;20033;-67
2021/06/10 01:55:32;;;;;;;1.40;0.77;;;;;;;;;;5010480;28;20041;-67
2021/06/10 01:58:00;;;;;;;0.90;0.20;;;;;;;;;;5012325;28;20516;-67
2021/06/10 02:00:27;;;;;;;1.77;0.30;;;;;;;;;;5010354;28;20390;-67
2021/06/10 02:02:55;;;;;;;0.47;0.20;;;;;;;;;;5011376;28;20130;-67
2021/06/10 02:05:24;;;;;;;1.75;0.30;;;;;;;;;;5007710;28;20072;-68
2021/06/10 02:07:51;;;;;;;0.22;0.10;;;;;;;;;;5009046;28;20018;-67
2021/06/10 02:10:21;;;;;;;1.20;0.20;;;;;;;;;;5010638;28;20048;-67
2021/06/10 02:12:48;;;;;;;1.23;0.60;;;;;;;;;;4992444;28;20057;-68
2021/06/10 02:15:16;;;;;;;1.27;0.20;;;;;;;;;;5002466;28;20022;-67
2021/06/10 02:17:43;;;;;;;2.80;0.38;;;;;;;;;;5002882;28;20037;-68
2021/06/10 02:20:14;;;;;;;0.65;0.30;;;;;;;;;;4995653;28;20023;-67
2021/06/10 02:22:42;;;;;;;2.92;0.40;;;;;;;;;;5015174;28;20504;-67
2021/06/10 02:25:09;;;;;;;1.10;0.30;;;;;;;;;;5011947;28;20049;-67
2021/06/10 02:27:36;;;;;;;1.55;0.30;;;;;;;;;;5017682;28;20026;-67
2021/06/10 02:30:05;;;;;;;0.35;0.20;;;;;;;;;;5015934;28;20034;-67
2021/06/10 02:32:32;;;;;;;1.42;0.20;;;;;;;;;;5012907;28;20060;-68
2021/06/10 02:35:01;;;;;;;2.65;0.30;;;;;;;;;;4998181;28;20108;-68
2021/06/10 02:37:29;;;;;;;1.65;0.30;;;;;;;;;;5013817;28;20022;-68
2021/06/10 02:39:56;;;;;;;0.60;0.30;;;;;;;;;;5015600;28;20086;-67
2021/06/10 02:42:24;;;;;;;1.60;0.30;;;;;;;;;;5013986;28;20160;-66
2021/06/10 02:44:53;;;;;;;2.28;0.30;;;;;;;;;;5014315;28;20115;-66
2021/06/10 02:47:21;;;;;;;1.50;0.70;;;;;;;;;;5014109;28;20121;-67
2021/06/10 02:49:50;;;;;;;0.52;0.30;;;;;;;;;;5015563;28;20022;-68
2021/06/10 02:52:18;;;;;;;1.65;0.40;;;;;;;;;;5006844;28;20022;-66
2021/06/10 02:54:46;;;;;;;0.85;0.30;;;;;;;;;;5015313;28;20021;-68
2021/06/10 02:57:13;;;;;;;0.35;0.20;;;;;;;;;;5012298;28;20030;-68
2021/06/10 02:59:43;;;;;;;0.20;0.20;;;;;;;;;;5015412;28;20022;-68
2021/06/10 03:02:11;;;;;;;0.88;0.30;;;;;;;;;;5013710;28;20494;-68
2021/06/10 03:04:40;;;;;;;1.13;0.50;;;;;;;;;;5012193;28;20026;-68
2021/06/10 03:07:08;;;;;;;0.45;0.20;;;;;;;;;;5013264;28;20022;-67
2021/06/10 03:09:35;;;;;;;0.65;0.20;;;;;;;;;;5014765;28;20087;-68
2021/06/10 03:12:03;;;;;;;1.52;0.30;;;;;;;;;;5011587;28;20068;-68
2021/06/10 03:14:30;;;;;;;2.00;1.00;;;;;;;;;;5012748;28;20037;-68
2021/06/10 03:16:58;;;;;;;3.13;0.88;;;;;;;;;;5013002;28;20514;-68
2021/06/10 03:19:25;;;;;;;5.55;0.60;;;;;;;;;;5014621;28;20022;-68
2021/06/10 03:21:52;;;;;;;1.88;0.40;;;;;;;;;;5012869;28;20494;-67
2021/06/10 03:24:19;;;;;;;2.92;0.80;;;;;;;;;;5014370;28;20053;-66
2021/06/10 03:26:47;;;;;;;2.75;0.30;;;;;;;;;;5013001;28;20033;-67
2021/06/10 03:29:15;;;;;;;1.02;0.30;;;;;;;;;;5013804;28;20082;-67
2021/06/10 03:31:42;;;;;;;1.30;0.60;;;;;;;;;;5011503;28;20021;-67
2021/06/10 03:34:10;;;;;;;5.32;0.60;;;;;;;;;;5014306;28;20483;-67
2021/06/10 03:36:37;;;;;;;3.33;0.45;;;;;;;;;;5012471;28;20030;-67
2021/06/10 03:39:05;;;;;;;2.78;0.40;;;;;;;;;;5014571;28;20501;-67
2021/06/10 03:41:33;;;;;;;1.38;0.38;;;;;;;;;;5011813;28;20034;-67
2021/06/10 03:44:01;;;;;;;3.03;0.40;;;;;;;;;;5014489;28;20030;-67
2021/06/10 03:46:29;;;;;;;1.60;0.47;;;;;;;;;;5010253;28;20022;-68
2021/06/10 03:48:56;;;;;;;2.58;0.57;;;;;;;;;;5014225;28;20297;-68
2021/06/10 03:51:23;;;;;;;1.88;0.77;;;;;;;;;;5012531;28;20064;-68
2021/06/10 03:53:53;;;;;;;1.33;0.30;;;;;;;;;;5014458;28;20060;-68
2021/06/10 03:56:20;;;;;;;1.15;0.50;;;;;;;;;;5011256;28;20041;-68
2021/06/10 03:58:47;;;;;;;1.05;0.30;;;;;;;;;;5013953;28;20456;-68
2021/06/10 04:01:14;;;;;;;0.88;0.20;;;;;;;;;;5012489;28;20018;-68
2021/06/10 04:03:42;;;;;;;1.45;0.63;;;;;;;;;;5014170;28;20068;-68
2021/06/10 04:06:11;;;;;;;1.60;0.40;;;;;;;;;;5008254;28;20088;-68
2021/06/10 04:08:38;;;;;;;1.23;0.30;;;;;;;;;;5009003;28;20050;-68
2021/06/10 04:11:06;;;;;;;0.88;0.30;;;;;;;;;;5009794;28;20097;-68
2021/06/10 04:13:33;;;;;;;0.47;0.30;;;;;;;;;;4992446;28;20038;-68
2021/06/10 04:16:00;;;;;;;0.65;0.30;;;;;;;;;;5009560;28;20116;-69
2021/06/10 04:18:27;;;;;;;1.00;0.20;;;;;;;;;;5010386;28;20048;-69
2021/06/10 04:20:55;;;;;;;0.38;0.20;;;;;;;;;;5010230;28;20061;-69
2021/06/10 04:23:22;;;;;;;1.08;0.25;;;;;;;;;;5009275;28;20084;-69
2021/06/10 04:25:49;;;;;;;2.40;0.32;;;;;;;;;;5010837;28;20048;-68
2021/06/10 04:28:16;;;;;;;1.90;0.30;;;;;;;;;;5008116;28;20025;-68
2021/06/10 04:30:44;;;;;;;0.57;0.22;;;;;;;;;;5008595;28;20375;-69
2021/06/10 04:33:11;;;;;;;0.60;0.20;;;;;;;;;;5006593;28;20040;-69
2021/06/10 04:35:38;;;;;;;1.70;0.50;;;;;;;;;;5007540;28;20033;-69
2021/06/10 04:38:06;;;;;;;1.40;0.88;;;;;;;;;;5011191;28;20022;-69
2021/06/10 04:40:33;;;;;;;3.17;0.60;;;;;;;;;;5011753;28;20443;-69
2021/06/10 04:43:01;;;;;;;0.35;0.20;;;;;;;;;;4994562;28;20085;-69
2021/06/10 04:45:29;;;;;;;1.05;0.40;;;;;;;;;;5001838;28;20105;-69
2021/06/10 04:47:56;;;;;;;3.95;0.80;;;;;;;;;;5012178;28;20132;-69
2021/06/10 04:50:26;;;;;;;0.88;0.30;;;;;;;;;;5010588;28;20026;-69
2021/06/10 04:52:53;;;;;;;0.98;0.30;;;;;;;;;;5011416;28;20030;-69
2021/06/10 04:55:21;;;;;;;0.47;0.30;;;;;;;;;;5005882;28;20030;-69
2021/06/10 04:57:48;;;;;;;0.90;0.32;;;;;;;;;;5001019;28;20422;-69
2021/06/10 05:00:15;;;;;;;1.52;0.30;;;;;;;;;;5006961;28;20060;-69
2021/06/10 05:02:42;;;;;;;0.30;0.20;;;;;;;;;;5009505;28;20034;-69
2021/06/10 05:05:10;;;;;;;0.57;0.30;;;;;;;;;;5004429;28;20030;-69
2021/06/10 05:07:37;;;;;;;0.20;0.20;;;;;;;;;;5007755;28;20281;-69
2021/06/10 05:10:05;;;;;;;0.80;0.35;;;;;;;;;;5010132;28;20025;-69
2021/06/10 05:12:32;;;;;;;0.43;0.30;;;;;;;;;;5008004;28;20030;-69
2021/06/10 05:14:59;;;;;;;1.40;0.30;;;;;;;;;;5006135;28;20026;-69
2021/06/10 05:17:26;;;;;;;0.98;0.40;;;;;;;;;;4994109;28;20034;-69
2021/06/10 05:19:53;;;;;;;1.40;0.50;;;;;;;;;;5009120;28;20080;-69
2021/06/10 05:22:20;;;;;;;2.45;1.10;;;;;;;;;;5001797;28;20037;-69
2021/06/10 05:24:48;;;;;;;0.85;0.30;;;;;;;;;;5008548;28;20038;-69
2021/06/10 05:27:15;;;;;;;1.00;0.55;;;;;;;;;;5010881;28;20061;-69
2021/06/10 05:29:42;;;;;;;1.20;0.70;;;;;;;;;;5010252;28;20529;-69
2021/06/10 05:32:10;;;;;;;1.52;0.60;;;;;;;;;;5003966;28;20034;-69
2021/06/10 05:34:37;;;;;;;1.95;0.40;;;;;;;;;;4992419;28;20030;-69
2021/06/10 05:37:04;;;;;;;1.83;0.70;;;;;;;;;;5010140;28;20046;-69
2021/06/10 05:39:31;;;;;;;2.25;0.60;;;;;;;;;;5009860;28;20124;-69
2021/06/10 05:41:58;;;;;;;1.35;0.40;;;;;;;;;;5008199;28;20030;-69
2021/06/10 05:44:26;;;;;;;1.30;0.63;;;;;;;;;;5007214;28;20038;-69
2021/06/10 05:46:53;;;;;;;3.55;0.60;;;;;;;;;;5007434;28;20038;-69
2021/06/10 05:49:20;;;;;;;1.48;0.40;;;;;;;;;;5011194;28;20026;-69
2021/06/10 05:51:48;;;;;;;1.35;0.65;;;;;;;;;;5008617;28;20033;-69
2021/06/10 05:54:15;;;;;;;1.75;0.82;;;;;;;;;;4999817;28;20173;-70
2021/06/10 05:56:42;;;;;;;0.90;0.40;;;;;;;;;;5003320;28;20052;-70
2021/06/10 05:59:09;;;;;;;2.92;0.60;;;;;;;;;;5012020;28;20026;-70
2021/06/10 06:01:37;;;;;;;1.65;0.80;;;;;;;;;;5010325;28;20434;-70
2021/06/10 06:04:04;;;;;;;2.80;0.50;;;;;;;;;;4994779;28;20026;-69
2021/06/10 06:06:31;;;;;;;2.35;0.93;;;;;;;;;;5006800;28;20034;-70
2021/06/10 06:08:59;;;;;;;1.40;0.50;;;;;;;;;;5004889;28;20026;-69
2021/06/10 06:11:26;;;;;;;1.38;0.45;;;;;;;;;;5004411;28;20026;-69
2021/06/10 06:14:07;;;;;;;0.80;0.35;;;;;;;;;;5006824;28;20072;-70
2021/06/10 06:16:35;;;;;;;0.90;0.35;;;;;;;;;;5006503;28;20026;-70
2021/06/10 06:19:02;;;;;;;0.82;0.50;;;;;;;;;;5005542;28;20060;-69
2021/06/10 06:21:30;;;;;;;1.52;0.60;;;;;;;;;;4990129;28;20448;-69
2021/06/10 06:23:58;;;;;;;2.33;0.32;;;;;;;;;;5009957;28;20077;-70
2021/06/10 06:26:25;;;;;;;0.63;0.50;;;;;;;;;;5004366;28;20026;-69
2021/06/10 06:28:59;;;;;;;0.77;0.40;;;;;;;;;;5006738;28;20049;-69
2021/06/10 06:31:26;;;;;;;;;;;;;;;;;;5007407;28;20018;-69
2021/06/10 06:33:53;;;;;;;0.65;0.40;;;;;;;;;;5005254;28;19935;-68
2021/06/10 06:36:20;;;;;;;1.27;0.80;;;;;;;;;;5008086;28;20414;-69
2021/06/10 06:38:48;;;;;;;1.25;0.40;;;;;;;;;;5010108;28;20053;-69
2021/06/10 06:41:16;;;;;;;1.98;0.50;;;;;;;;;;4997955;28;20049;-66
2021/06/10 06:43:43;;;;;;;0.80;0.55;;;;;;;;;;5004386;28;20030;-69
2021/06/10 06:46:10;;;;;;;1.15;0.60;;;;;;;;;;5003657;28;20018;-69
2021/06/10 06:48:37;;;;;;;2.50;0.80;;;;;;;;;;5007285;28;20022;-69
2021/06/10 06:51:06;;;;;;;1.70;0.40;;;;;;;;;;5009117;28;21750;-68
2021/06/10 06:53:33;;;;;;;1.45;0.80;;;;;;;;;;4992566;28;20514;-69
2021/06/10 06:56:01;;;;;;;4.32;2.08;;;;;;;;;;4992320;28;20056;-68
2021/06/10 06:58:28;;;;;;;4.43;1.33;;;;;;;;;;5008422;28;20079;-69
2021/06/10 07:00:56;;;;;;;2.33;0.95;;;;;;;;;;5009244;28;20505;-69
2021/06/10 07:03:23;;;;;;;1.42;0.80;;;;;;;;;;4994079;28;20048;-69
2021/06/10 07:05:52;;;;;;;2.17;0.93;;;;;;;;;;5011105;28;20022;-69
2021/06/10 07:08:20;;;;;;;1.73;0.70;;;;;;;;;;4995272;28;20045;-68
2021/06/10 07:10:53;;;;;;;2.25;0.90;;;;;;;;;;5011701;28;20026;-68
2021/06/10 07:13:24;;;;;;;3.72;1.00;;;;;;;;;;5013039;28;20025;-68
2021/06/10 07:15:51;;;;;;;3.38;2.53;;;;;;;;;;5010091;28;20037;-68
2021/06/10 07:18:18;;;;;;;3.17;2.35;;;;;;;;;;5011019;28;20026;-68
2021/06/10 07:20:46;;;;;;;6.80;4.43;;;;;;;;;;5018985;28;20028;-69
2021/06/10 07:23:14;;;;;;;5.80;4.13;;;;;;;;;;5013362;28;20040;-69
2021/06/10 07:25:42;;;;;;;6.90;3.83;;;;;;;;;;5022612;28;20033;-68
2021/06/10 07:28:09;;;;;;;3.35;2.53;;;;;;;;;;5018332;28;20033;-69
2021/06/10 07:30:36;;;;;;;3.38;2.03;;;;;;;;;;5022115;28;20025;-69
2021/06/10 07:33:04;;;;;;;2.60;1.58;;;;;;;;;;5022728;28;20022;-68
2021/06/10 07:35:35;;;;;;;4.57;3.70;;;;;;;;;;5020602;28;20076;-67
2021/06/10 07:38:04;;;;;;;10.10;5.88;;;;;;;;;;5016767;28;20021;-67
2021/06/10 07:40:31;;;;;;;5.97;4.35;;;;;;;;;;5026617;28;20029;-67
2021/06/10 07:42:58;;;;;;;7.18;4.65;;;;;;;;;;5015103;28;20026;-68
2021/06/10 07:45:29;;;;;;;6.20;4.70;;;;;;;;;;5025686;28;20029;-68
2021/06/10 07:47:56;;;;;;;3.58;3.00;;;;;;;;;;5016941;28;20117;-68
2021/06/10 07:50:24;;;;;;;5.20;2.30;;;;;;;;;;5014737;28;20486;-67
2021/06/10 07:52:51;;;;;;;2.50;1.55;;;;;;;;;;5016112;28;20029;-68
2021/06/10 07:55:22;;;;;;;3.25;1.52;;;;;;;;;;5013283;28;20031;-69
2021/06/10 07:57:50;;;;;;;4.20;1.30;;;;;;;;;;5026689;28;20057;-69
2021/06/10 08:00:17;;;;;;;4.00;1.02;;;;;;;;;;5029085;28;20056;-69
2021/06/10 08:02:44;;;;;;;2.83;1.33;;;;;;;;;;5022503;28;20021;-69
2021/06/10 08:05:12;;;;;;;30.83;22.90;;;;;;;;;;5019382;28;20113;-69
2021/06/10 08:07:43;;;;;;;13.13;10.57;;;;;;;;;;5015439;28;20088;-69
2021/06/10 08:10:11;;;;;;;17.15;12.95;;;;;;;;;;5017570;28;20053;-68
2021/06/10 08:12:38;;;;;;;11.10;8.50;;;;;;;;;;5024266;28;20032;-68
2021/06/10 08:15:10;;;;;;;10.55;9.45;;;;;;;;;;5026972;28;20053;-68
2021/06/10 08:17:37;;;;;;;10.68;9.57;;;;;;;;;;5018975;28;20045;-68
2021/06/10 08:20:05;;;;;;;10.75;9.65;;;;;;;;;;5016247;28;20038;-69
2021/06/10 08:22:32;;;;;;;8.80;7.18;;;;;;;;;;5015116;28;20030;-68
2021/06/10 08:24:59;;;;;;;6.32;5.30;;;;;;;;;;5013062;28;20061;-68
2021/06/10 08:27:26;;;;;;;5.30;4.30;;;;;;;;;;5024203;28;20052;-68
2021/06/10 08:29:53;;;;;;;5.03;3.08;;;;;;;;;;5024396;28;20032;-68
2021/06/10 08:32:21;;;;;;;13.20;11.02;;;;;;;;;;5013562;28;20036;-68
2021/06/10 08:34:48;;;;;;;9.23;8.07;;;;;;;;;;5017106;28;20041;-68
2021/06/10 08:37:15;;;;;;;8.35;6.68;;;;;;;;;;5010774;28;20033;-68
2021/06/10 08:39:42;;;;;;;5.80;3.83;;;;;;;;;;5021863;28;20033;-68
2021/06/10 08:42:09;;;;;;;5.35;3.70;;;;;;;;;;5020927;28;20030;-68
2021/06/10 08:44:37;;;;;;;4.85;3.30;;;;;;;;;;5027306;28;20363;-68
2021/06/10 08:47:07;;;;;;;7.05;2.97;;;;;;;;;;5013999;28;20091;-68
2021/06/10 08:49:34;;;;;;;3.88;2.53;;;;;;;;;;5007901;28;20117;-68
2021/06/10 08:52:05;;;;;;;5.97;2.80;;;;;;;;;;5015736;28;20045;-68
2021/06/10 08:54:32;;;;;;;4.32;2.78;;;;;;;;;;5013518;28;20022;-68
2021/06/10 08:57:00;;;;;;;4.55;3.17;;;;;;;;;;5021296;28;20124;-68
2021/06/10 08:59:30;;;;;;;6.90;4.10;;;;;;;;;;5021892;28;20105;-68
2021/06/10 09:01:57;;;;;;;6.53;3.22;;;;;;;;;;5014624;28;20174;-68
2021/06/10 09:04:24;;;;;;;7.13;4.57;;;;;;;;;;5013403;28;20076;-68
2021/06/10 09:06:52;;;;;;;5.15;2.85;;;;;;;;;;5022684;28;20057;-68
2021/06/10 09:09:32;;;;;;;5.28;3.33;;;;;;;;;;5010464;28;20075;-68
2021/06/10 09:12:05;;;;;;;6.55;3.75;;;;;;;;;;5021279;28;20026;-68
2021/06/10 09:14:32;;;;;;;7.00;5.45;;;;;;;;;;5016708;28;20478;-68
2021/06/10 09:16:59;;;;;;;9.75;5.80;;;;;;;;;;5013345;28;20087;-68
2021/06/10 09:19:31;;;;;;;8.70;5.15;;;;;;;;;;5015093;28;20025;-68
2021/06/10 09:22:00;;;;;;;8.10;6.53;;;;;;;;;;5016627;28;20041;-68
2021/06/10 09:24:31;;;;;;;10.52;7.47;;;;;;;;;;5011609;28;20072;-68
2021/06/10 09:27:02;;;;;;;11.50;7.65;;;;;;;;;;5005668;28;20029;-68
2021/06/10 09:29:39;;;;;;;8.25;4.50;;;;;;;;;;5015832;28;20034;-68
2021/06/10 09:32:09;;;;;;;8.52;4.78;;;;;;;;;;5015983;28;20025;-68
2021/06/10 09:34:44;;;;;;;8.13;4.30;;;;;;;;;;5012618;28;20068;-69
2021/06/10 09:37:10;;;;;;;;;;;;;;;;;;5012749;28;20112;-69
2021/06/10 09:39:51;;;;;;;5.70;3.33;;;;;;;;;;5015277;28;19909;-69
2021/06/10 09:42:23;;;;;;;5.03;3.42;;;;;;;;;;5013114;28;20042;-69
2021/06/10 09:44:57;;;;;;;4.10;2.95;;;;;;;;;;5013544;28;20394;-69
2021/06/10 09:47:28;;;;;;;6.88;3.78;;;;;;;;;;5006770;28;20368;-69
2021/06/10 09:49:56;;;;;;;3.75;2.95;;;;;;;;;;4998822;28;20104;-69
2021/06/10 09:52:23;;;;;;;7.40;4.15;;;;;;;;;;5015126;28;20109;-69
2021/06/10 09:54:55;;;;;;;4.85;3.05;;;;;;;;;;5012507;28;20463;-69
2021/06/10 09:57:22;;;;;;;7.38;3.00;;;;;;;;;;4992479;28;20029;-69
2021/06/10 09:59:51;;;;;;;4.22;2.80;;;;;;;;;;5020500;28;20017;-70
2021/06/10 10:02:19;;;;;;;5.38;3.10;;;;;;;;;;5014153;28;20482;-69
2021/06/10 10:05:00;;;;;;;4.93;2.70;;;;;;;;;;5012715;28;20032;-69
2021/06/10 10:07:28;;;;;;;7.43;4.28;;;;;;;;;;5018026;28;20029;-69
2021/06/10 10:09:59;;;;;;;6.90;4.25;;;;;;;;;;5012766;28;20505;-69
2021/06/10 10:12:28;;;;;;;8.70;4.70;;;;;;;;;;5012450;28;20036;-69
2021/06/10 10:14:56;;;;;;;7.95;5.15;;;;;;;;;;5012269;28;20029;-69
2021/06/10 10:17:24;;;;;;;9.00;5.30;;;;;;;;;;5018236;28;20041;-69
2021/06/10 10:19:51;;;;;;;9.73;4.93;;;;;;;;;;5017665;28;20026;-69
2021/06/10 10:22:18;;;;;;;7.78;3.95;;;;;;;;;;5010101;28;20062;-69
2021/06/10 10:24:46;;;;;;;6.13;4.25;;;;;;;;;;4997330;28;20126;-69
2021/06/10 10:27:13;;;;;;;6.38;4.18;;;;;;;;;;5011453;28;20684;-69
2021/06/10 10:29:43;;;;;;;4.40;2.90;;;;;;;;;;5015127;28;20025;-69
2021/06/10 10:32:11;;;;;;;5.35;2.92;;;;;;;;;;5010836;28;20045;-69
2021/06/10 10:34:39;;;;;;;6.68;2.85;;;;;;;;;;5013743;28;20029;-69
2021/06/10 10:37:32;;;;;;;5.47;3.33;;;;;;;;;;5021521;28;20482;-69
2021/06/10 10:40:00;;;;;;;5.10;3.50;;;;;;;;;;5012800;28;20050;-69
2021/06/10 10:42:33;;;;;;;5.00;3.72;;;;;;;;;;5016105;28;20550;-69
2021/06/10 10:45:18;;;;;;;5.30;3.50;;;;;;;;;;5019579;28;20025;-69
2021/06/10 10:47:48;;;;;;;6.43;4.70;;;;;;;;;;5016009;28;20437;-69
2021/06/10 10:50:19;;;;;;;6.45;4.22;;;;;;;;;;5024028;28;20061;-69
2021/06/10 10:52:56;;;;;;;6.72;4.43;;;;;;;;;;5015983;28;20121;-69
2021/06/10 10:55:31;;;;;;;11.10;6.32;;;;;;;;;;5016052;28;20037;-69
2021/06/10 10:58:01;;;;;;;7.10;5.32;;;;;;;;;;5015682;28;20381;-69
2021/06/10 11:01:01;;;;;;;6.20;5.18;;;;;;;;;;5021981;28;20029;-68
2021/06/10 11:03:33;;;;;;;8.57;5.25;;;;;;;;;;4972253;28;20129;-68
2021/06/10 11:06:20;;;;;;;6.65;4.50;;;;;;;;;;5015008;28;20033;-68
2021/06/10 11:09:12;;;;;;;6.07;4.57;;;;;;;;;;5015407;28;20069;-68
2021/06/10 11:11:55;;;;;;;4.85;3.60;;;;;;;;;;5015857;28;20025;-68
2021/06/10 11:14:39;;;;;;;5.90;3.45;;;;;;;;;;5013579;28;20030;-68
2021/06/10 11:17:19;;;;;;;3.78;3.15;;;;;;;;;;5021887;28;20125;-68
2021/06/10 11:19:50;;;;;;;4.22;2.63;;;;;;;;;;5015229;28;20022;-68
2021/06/10 11:22:30;;;;;;;4.10;2.40;;;;;;;;;;5014952;28;20061;-67
2021/06/10 11:24:57;;;;;;;4.65;2.67;;;;;;;;;;4997144;28;20100;-68
2021/06/10 11:27:43;;;;;;;6.50;3.95;;;;;;;;;;5015663;28;20026;-68
2021/06/10 11:30:10;;;;;;;8.98;3.95;;;;;;;;;;5016406;28;20033;-68
2021/06/10 11:32:55;;;;;;;5.88;3.33;;;;;;;;;;5034519;28;20433;-68
2021/06/10 11:35:31;;;;;;;6.80;3.60;;;;;;;;;;5015286;28;20046;-69
2021/06/10 11:37:59;;;;;;;6.78;3.75;;;;;;;;;;5027481;28;20483;-69
2021/06/10 11:40:27;;;;;;;9.77;4.20;;;;;;;;;;5012166;28;20045;-69
2021/06/10 11:42:54;;;;;;;8.60;4.85;;;;;;;;;;5014809;28;20036;-69
2021/06/10 11:45:22;;;;;;;6.32;3.60;;;;;;;;;;5019418;28;20124;-69
2021/06/10 11:47:50;;;;;;;3.40;2.38;;;;;;;;;;5029908;28;20106;-68
2021/06/10 11:50:36;;;;;;;4.60;2.53;;;;;;;;;;5032621;28;20037;-68
2021/06/10 11:53:17;;;;;;;6.55;2.60;;;;;;;;;;5015733;28;20638;-68
2021/06/10 11:55:46;;;;;;;4.07;2.35;;;;;;;;;;5027594;28;20017;-68
2021/06/10 11:58:14;;;;;;;3.53;2.85;;;;;;;;;;5022795;28;20128;-68
2021/06/10 12:00:42;;;;;;;4.60;3.05;;;;;;;;;;5022503;28;20087;-68
2021/06/10 12:03:13;;;;;;;4.90;3.13;;;;;;;;;;5017836;28;20040;-68
2021/06/10 12:05:48;;;;;;;4.75;2.88;;;;;;;;;;5014858;28;20033;-68
2021/06/10 12:08:14;;;;;;;;;;;;;;;;;;5012628;28;20027;-68
2021/06/10 12:10:47;;;;;;;4.72;3.25;;;;;;;;;;5021414;28;20368;-69
2021/06/10 12:13:14;;;;;;;4.90;2.47;;;;;;;;;;5014205;28;20042;-68
2021/06/10 12:15:44;;;;;;;5.47;3.83;;;;;;;;;;5017305;28;20049;-69
2021/06/10 12:18:13;;;;;;;8.98;6.50;;;;;;;;;;5020827;28;20470;-68
2021/06/10 12:20:41;;;;;;;7.90;4.97;;;;;;;;;;5024045;28;20018;-69
2021/06/10 12:23:18;;;;;;;5.65;3.90;;;;;;;;;;5021845;28;20084;-69
2021/06/10 12:25:49;;;;;;;8.68;6.55;;;;;;;;;;5022522;28;20117;-68
2021/06/10 12:28:27;;;;;;;9.93;6.30;;;;;;;;;;5021479;28;20029;-68
2021/06/10 12:31:08;;;;;;;5.60;4.07;;;;;;;;;;5014155;28;20394;-68
2021/06/10 12:33:36;;;;;;;7.13;4.18;;;;;;;;;;5025630;28;20079;-68
2021/06/10 12:36:05;;;;;;;8.15;4.65;;;;;;;;;;5021795;28;20100;-68
2021/06/10 12:38:42;;;;;;;6.07;4.47;;;;;;;;;;5020382;28;20561;-68
2021/06/10 12:41:12;;;;;;;4.35;3.42;;;;;;;;;;5025397;28;20036;-69
2021/06/10 12:43:39;;;;;;;5.32;3.63;;;;;;;;;;5016268;28;20050;-69
2021/06/10 12:46:07;;;;;;;4.15;2.78;;;;;;;;;;5022389;28;20141;-69
2021/06/10 12:48:37;;;;;;;4.68;2.72;;;;;;;;;;5020595;28;20132;-69
2021/06/10 12:51:24;;;;;;;3.05;2.40;;;;;;;;;;5022642;28;20026;-69
2021/06/10 12:53:58;;;;;;;3.53;2.63;;;;;;;;;;5022835;28;20478;-69
2021/06/10 12:56:34;;;;;;;3.92;2.40;;;;;;;;;;5018438;28;20026;-69
2021/06/10 12:59:02;;;;;;;3.13;1.77;;;;;;;;;;5020119;28;20030;-69
2021/06/10 13:01:29;;;;;;;4.93;1.50;;;;;;;;;;5015391;28;20025;-69
2021/06/10 13:03:56;;;;;;;3.35;1.60;;;;;;;;;;5019311;28;20033;-69
2021/06/10 13:06:24;;;;;;;1.83;1.23;;;;;;;;;;5017357;28;20033;-69
2021/06/10 13:08:51;;;;;;;2.80;1.65;;;;;;;;;;5018718;28;20040;-69
2021/06/10 13:11:19;;;;;;;5.55;2.80;;;;;;;;;;5021206;28;20025;-69
2021/06/10 13:13:47;;;;;;;7.78;3.90;;;;;;;;;;5020047;28;20437;-69
2021/06/10 13:16:16;;;;;;;11.13;4.88;;;;;;;;;;5021559;28;20518;-69
2021/06/10 13:18:44;;;;;;;10.57;4.93;;;;;;;;;;5027592;28;20033;-69
2021/06/10 13:21:16;;;;;;;4.75;3.13;;;;;;;;;;5018823;28;20026;-69
2021/06/10 13:23:51;;;;;;;5.38;1.85;;;;;;;;;;5019248;28;20187;-69
2021/06/10 13:26:32;;;;;;;2.42;1.30;;;;;;;;;;5019743;28;20051;-69
2021/06/10 13:29:02;;;;;;;2.70;1.30;;;;;;;;;;5015346;28;20045;-69
2021/06/10 13:31:37;;;;;;;1.98;0.70;;;;;;;;;;5019087;28;20454;-69
2021/06/10 13:34:06;;;;;;;1.95;0.90;;;;;;;;;;5018857;28;20386;-69
2021/06/10 13:36:43;;;;;;;2.35;0.90;;;;;;;;;;5013404;28;20026;-69
2021/06/10 13:39:10;;;;;;;1.20;0.60;;;;;;;;;;5013782;28;20090;-69
2021/06/10 13:41:38;;;;;;;2.63;0.73;;;;;;;;;;5016976;28;20026;-69
2021/06/10 13:44:05;;;;;;;0.82;0.45;;;;;;;;;;5015947;28;20042;-69
2021/06/10 13:46:32;;;;;;;1.08;0.50;;;;;;;;;;5027715;28;20017;-69
2021/06/10 13:48:59;;;;;;;0.88;0.60;;;;;;;;;;5026003;28;20053;-69
2021/06/10 13:51:26;;;;;;;1.55;0.90;;;;;;;;;;5022272;28;20026;-69
2021/06/10 13:53:53;;;;;;;1.88;1.17;;;;;;;;;;5018436;28;20512;-69
2021/06/10 13:56:21;;;;;;;2.45;0.70;;;;;;;;;;5014628;28;20430;-69
2021/06/10 13:58:48;;;;;;;1.27;0.88;;;;;;;;;;5013651;28;20467;-69
2021/06/10 14:01:15;;;;;;;1.58;0.93;;;;;;;;;;5015510;28;20030;-69
2021/06/10 14:03:42;;;;;;;1.98;1.00;;;;;;;;;;5021646;28;20394;-69
2021/06/10 14:06:09;;;;;;;2.78;1.52;;;;;;;;;;5013653;28;20037;-69
2021/06/10 14:08:38;;;;;;;3.60;1.88;;;;;;;;;;5022375;28;20018;-69
2021/06/10 14:11:08;;;;;;;3.20;1.50;;;;;;;;;;5022416;28;20025;-69
2021/06/10 14:13:35;;;;;;;3.10;1.20;;;;;;;;;;5029867;28;20021;-68
2021/06/10 14:16:02;;;;;;;2.85;1.30;;;;;;;;;;5023876;28;20014;-69
2021/06/10 14:18:29;;;;;;;1.73;1.30;;;;;;;;;;5029920;28;20037;-69
2021/06/10 14:20:56;;;;;;;3.47;1.80;;;;;;;;;;5020204;28;20149;-69
2021/06/10 14:23:24;;;;;;;3.83;2.25;;;;;;;;;;5022129;28;20371;-69
2021/06/10 14:25:51;;;;;;;3.80;2.70;;;;;;;;;;5030647;28;20029;-69
2021/06/10 14:28:18;;;;;;;3.50;2.65;;;;;;;;;;5028966;28;20391;-69
2021/06/10 14:30:50;;;;;;;4.30;3.00;;;;;;;;;;5029355;28;20030;-68
2021/06/10 14:33:18;;;;;;;6.97;5.97;;;;;;;;;;5026419;28;20026;-69
2021/06/10 14:35:45;;;;;;;6.22;4.80;;;;;;;;;;5025501;28;20022;-69
2021/06/10 14:38:12;;;;;;;7.45;3.63;;;;;;;;;;5026631;28;20025;-69
2021/06/10 14:40:41;;;;;;;4.88;3.70;;;;;;;;;;5021865;28;20022;-68
2021/06/10 14:43:11;;;;;;;5.32;3.72;;;;;;;;;;5020767;28;20044;-69
2021/06/10 14:45:39;;;;;;;4.72;3.35;;;;;;;;;;5034385;28;20034;-69
2021/06/10 14:48:06;;;;;;;4.03;3.45;;;;;;;;;;5018040;28;20029;-69
2021/06/10 14:50:33;;;;;;;4.35;3.17;;;;;;;;;;5028081;28;20032;-69
2021/06/10 14:53:00;;;;;;;5.55;3.38;;;;;;;;;;5018751;28;20505;-69
2021/06/10 14:55:29;;;;;;;3.60;2.88;;;;;;;;;;5011277;28;20026;-69